createdAt,value
2022-08-05T00:00:52.401Z,26
2022-08-05T00:01:52.563Z,26.08
2022-08-05T00:02:52.430Z,26.08
2022-08-05T00:03:52.343Z,25.92
2022-08-05T00:04:55.661Z,26
2022-08-05T00:06:03.406Z,26
2022-08-05T00:06:52.769Z,25.92
2022-08-05T00:07:59.463Z,25.84
2022-08-05T00:08:53.052Z,25.6
2022-08-05T00:09:53.207Z,25.6
2022-08-05T00:10:53.313Z,25.84
2022-08-05T00:11:55.603Z,25.84
2022-08-05T00:12:56.283Z,25.84
2022-08-05T00:13:53.768Z,25.68
2022-08-05T00:14:53.911Z,25.52
2022-08-05T00:15:58.330Z,25.6
2022-08-05T00:16:54.172Z,25.52
2022-08-05T00:17:54.312Z,25.6
2022-08-05T00:18:54.472Z,25.68
2022-08-05T00:20:02.265Z,25.6
2022-08-05T00:20:54.729Z,25.52
2022-08-05T00:21:54.878Z,25.44
2022-08-05T00:22:56.044Z,25.44
2022-08-05T00:24:05.229Z,25.28
2022-08-05T00:24:55.323Z,25.52
2022-08-05T00:25:55.431Z,25.28
2022-08-05T00:26:55.582Z,25.52
2022-08-05T00:27:55.742Z,25.52
2022-08-05T00:28:55.901Z,25.6
2022-08-05T00:29:56.390Z,25.52
2022-08-05T00:30:56.156Z,25.6
2022-08-05T00:32:11.322Z,25.52
2022-08-05T00:32:56.399Z,25.44
2022-08-05T00:34:42.798Z,25.44
2022-08-05T00:36:15.353Z,25.44
2022-08-05T00:37:57.059Z,25.6
2022-08-05T00:38:57.247Z,25.52
2022-08-05T00:39:58.349Z,25.44
2022-08-05T00:40:57.513Z,25.6
2022-08-05T00:41:57.670Z,25.6
2022-08-05T00:42:57.830Z,25.6
2022-08-05T00:43:58.617Z,25.6
2022-08-05T00:44:58.067Z,25.6
2022-08-05T00:45:58.188Z,25.52
2022-08-05T00:47:01.831Z,25.52
2022-08-05T00:48:05.121Z,25.52
2022-08-05T00:48:58.549Z,25.44
2022-08-05T00:49:58.680Z,25.44
2022-08-05T00:50:58.832Z,25.52
2022-08-05T00:51:58.986Z,25.44
2022-08-05T00:52:59.137Z,25.2
2022-08-05T00:54:01.600Z,25.28
2022-08-05T00:54:59.445Z,25.2
2022-08-05T00:55:59.600Z,25.2
2022-08-05T00:56:59.746Z,25.2
2022-08-05T00:57:59.897Z,25.2
2022-08-05T00:59:00.266Z,25.28
2022-08-05T01:00:00.196Z,25.12
2022-08-05T01:01:00.495Z,25.04
2022-08-05T01:02:00.452Z,25.04
2022-08-05T01:03:00.600Z,25.12
2022-08-05T01:04:01.372Z,25.28
2022-08-05T01:05:00.872Z,25.28
2022-08-05T01:06:01.006Z,25.12
2022-08-05T01:07:01.110Z,25.12
2022-08-05T01:08:30.126Z,25.2
2022-08-05T01:09:03.058Z,25.04
2022-08-05T01:10:01.546Z,25.12
2022-08-05T01:11:01.672Z,25.04
2022-08-05T01:12:09.130Z,25.12
2022-08-05T01:13:05.462Z,25.04
2022-08-05T01:14:02.087Z,25.04
2022-08-05T01:15:03.968Z,25.04
2022-08-05T01:16:02.280Z,24.88
2022-08-05T01:17:02.430Z,25.04
2022-08-05T01:18:02.585Z,24.88
2022-08-05T01:19:02.737Z,25.04
2022-08-05T01:20:03.502Z,25.04
2022-08-05T01:21:02.999Z,25.04
2022-08-05T01:22:03.147Z,25.04
2022-08-05T01:23:05.876Z,24.88
2022-08-05T01:24:03.452Z,24.88
2022-08-05T01:25:04.568Z,24.88
2022-08-05T01:26:03.708Z,24.88
2022-08-05T01:27:12.206Z,25.04
2022-08-05T01:28:04.013Z,24.8
2022-08-05T01:29:05.278Z,24.72
2022-08-05T01:30:04.312Z,25.04
2022-08-05T01:31:04.598Z,25.12
2022-08-05T01:32:04.525Z,25.04
2022-08-05T01:33:04.665Z,24.8
2022-08-05T01:34:04.766Z,24.88
2022-08-05T01:35:08.081Z,24.8
2022-08-05T01:36:05.085Z,24.8
2022-08-05T01:37:05.170Z,24.8
2022-08-05T01:38:05.326Z,24.8
2022-08-05T01:39:05.521Z,25.04
2022-08-05T01:40:05.666Z,24.8
2022-08-05T01:41:05.782Z,24.88
2022-08-05T01:42:05.928Z,24.88
2022-08-05T01:43:06.031Z,24.8
2022-08-05T01:44:06.142Z,24.8
2022-08-05T01:45:08.131Z,24.8
2022-08-05T01:46:07.085Z,24.8
2022-08-05T01:47:06.744Z,24.8
2022-08-05T01:48:10.195Z,24.72
2022-08-05T01:49:12.263Z,24.8
2022-08-05T01:50:07.047Z,24.8
2022-08-05T01:51:08.715Z,25.04
2022-08-05T01:52:12.312Z,24.8
2022-08-05T01:53:07.469Z,24.72
2022-08-05T01:54:07.607Z,24.72
2022-08-05T01:55:07.758Z,24.72
2022-08-05T01:56:09.008Z,24.8
2022-08-05T01:58:08.731Z,24.64
2022-08-05T01:59:08.424Z,24.8
2022-08-05T02:00:11.809Z,24.8
2022-08-05T02:01:08.667Z,24.8
2022-08-05T02:02:10.554Z,24.8
2022-08-05T02:03:12.411Z,24.8
2022-08-05T02:04:09.080Z,24.72
2022-08-05T02:05:11.719Z,24.64
2022-08-05T02:06:24.270Z,24.8
2022-08-05T02:07:09.529Z,24.72
2022-08-05T02:08:09.684Z,24.8
2022-08-05T02:09:09.782Z,24.72
2022-08-05T02:10:09.937Z,24.8
2022-08-05T02:11:11.689Z,24.64
2022-08-05T02:12:10.410Z,24.72
2022-08-05T02:13:13.108Z,24.72
2022-08-05T02:14:12.158Z,24.72
2022-08-05T02:15:10.626Z,24.72
2022-08-05T02:16:10.661Z,24.72
2022-08-05T02:17:16.893Z,24.72
2022-08-05T02:19:11.057Z,24.64
2022-08-05T02:20:11.211Z,24.08
2022-08-05T02:21:14.891Z,24.32
2022-08-05T02:22:17.583Z,23.92
2022-08-05T02:23:11.665Z,23.44
2022-08-05T02:24:11.844Z,23.6
2022-08-05T02:25:12.583Z,23.84
2022-08-05T02:26:12.117Z,23.6
2022-08-05T02:27:12.231Z,23.44
2022-08-05T02:28:12.326Z,23.28
2022-08-05T02:29:21.421Z,22.88
2022-08-05T02:30:12.631Z,22.8
2022-08-05T02:31:13.839Z,22.72
2022-08-05T02:32:12.896Z,22.64
2022-08-05T02:33:13.029Z,22.48
2022-08-05T02:34:13.136Z,22.64
2022-08-05T02:35:13.994Z,22.64
2022-08-05T02:36:15.322Z,22.48
2022-08-05T02:37:13.542Z,22.32
2022-08-05T02:38:15.230Z,22.24
2022-08-05T02:39:13.922Z,22.24
2022-08-05T02:40:14.000Z,22.32
2022-08-05T02:41:14.872Z,22.24
2022-08-05T02:42:26.235Z,21.92
2022-08-05T02:43:15.331Z,21.84
2022-08-05T02:44:14.465Z,21.6
2022-08-05T02:45:14.604Z,21.6
2022-08-05T02:46:16.422Z,21.6
2022-08-05T02:47:14.826Z,21.44
2022-08-05T02:48:14.913Z,21.28
2022-08-05T02:49:15.071Z,21.52
2022-08-05T02:50:15.178Z,21.68
2022-08-05T02:51:15.322Z,22.24
2022-08-05T02:52:26.141Z,22.48
2022-08-05T02:53:15.960Z,22.48
2022-08-05T02:54:34.559Z,22.72
2022-08-05T02:55:17.650Z,22.8
2022-08-05T02:56:18.720Z,22.64
2022-08-05T02:58:09.625Z,22.64
2022-08-05T02:59:16.402Z,22.72
2022-08-05T03:00:16.542Z,22.8
2022-08-05T03:01:16.670Z,22.48
2022-08-05T03:02:16.741Z,22.64
2022-08-05T03:03:16.893Z,22.8
2022-08-05T03:04:17.044Z,22.88
2022-08-05T03:05:17.196Z,22.64
2022-08-05T03:06:53.058Z,22.32
2022-08-05T03:07:17.564Z,22
2022-08-05T03:08:17.561Z,22
2022-08-05T03:09:17.995Z,21.68
2022-08-05T03:10:21.688Z,21.12
2022-08-05T03:11:54.101Z,21.04
2022-08-05T03:12:18.162Z,21.28
2022-08-05T03:13:19.324Z,21.28
2022-08-05T03:14:18.480Z,21.28
2022-08-05T03:15:18.617Z,21.44
2022-08-05T03:16:18.770Z,21.2
2022-08-05T03:17:20.168Z,21.12
2022-08-05T03:18:19.078Z,20.8
2022-08-05T03:19:29.512Z,21.04
2022-08-05T03:20:19.331Z,21.04
2022-08-05T03:21:19.436Z,21.12
2022-08-05T03:22:31.849Z,21.2
2022-08-05T03:23:19.739Z,21.04
2022-08-05T03:24:20.767Z,20.8
2022-08-05T03:25:32.217Z,20.8
2022-08-05T03:26:31.178Z,20.8
2022-08-05T03:27:20.517Z,20.72
2022-08-05T03:28:20.497Z,20.8
2022-08-05T03:29:21.155Z,20.8
2022-08-05T03:30:20.887Z,20.72
2022-08-05T03:31:41.507Z,20.64
2022-08-05T03:32:21.024Z,20.48
2022-08-05T03:33:21.835Z,20.48
2022-08-05T03:34:24.392Z,20.64
2022-08-05T03:35:21.425Z,20.48
2022-08-05T03:36:30.487Z,20.4
2022-08-05T03:37:21.862Z,20.24
2022-08-05T03:38:23.810Z,19.92
2022-08-05T03:39:26.936Z,19.68
2022-08-05T03:40:24.120Z,19.6
2022-08-05T03:41:23.584Z,19.6
2022-08-05T03:42:22.383Z,19.92
2022-08-05T03:43:59.657Z,19.92
2022-08-05T03:44:22.673Z,19.92
2022-08-05T03:45:23.641Z,20
2022-08-05T03:46:22.992Z,20
2022-08-05T03:47:23.408Z,20
2022-08-05T03:48:23.289Z,20
2022-08-05T03:49:24.169Z,19.92
2022-08-05T03:50:23.590Z,20
2022-08-05T03:52:36.400Z,20.08
2022-08-05T03:55:54.888Z,20.08
2022-08-05T03:56:28.021Z,20.24
2022-08-05T03:57:29.173Z,20.48
2022-08-05T03:58:27.215Z,20.48
2022-08-05T03:59:24.868Z,20.72
2022-08-05T04:00:25.007Z,20.8
2022-08-05T04:01:25.192Z,20.72
2022-08-05T04:02:38.084Z,20.8
2022-08-05T04:03:26.856Z,20.72
2022-08-05T04:04:26.486Z,20.8
2022-08-05T04:05:25.618Z,20.8
2022-08-05T04:06:25.739Z,20.8
2022-08-05T04:07:25.925Z,20.8
2022-08-05T04:08:30.565Z,20.8
2022-08-05T04:09:26.789Z,20.88
2022-08-05T04:10:27.608Z,21.12
2022-08-05T04:11:47.211Z,21.2
2022-08-05T04:12:26.538Z,21.2
2022-08-05T04:13:27.799Z,21.2
2022-08-05T04:14:29.645Z,21.28
2022-08-05T04:15:27.879Z,21.2
2022-08-05T04:16:32.364Z,21.28
2022-08-05T04:17:36.572Z,21.28
2022-08-05T04:18:27.355Z,21.2
2022-08-05T04:19:27.451Z,21.44
2022-08-05T04:20:27.612Z,21.44
2022-08-05T04:22:05.437Z,21.28
2022-08-05T04:22:27.910Z,21.2
2022-08-05T04:23:57.060Z,21.44
2022-08-05T04:24:28.215Z,21.28
2022-08-05T04:25:38.636Z,21.44
2022-08-05T04:26:32.298Z,21.44
2022-08-05T04:27:33.399Z,21.52
2022-08-05T04:28:30.759Z,21.52
2022-08-05T04:29:28.915Z,21.6
2022-08-05T04:30:29.066Z,21.84
2022-08-05T04:31:38.373Z,22
2022-08-05T04:32:30.947Z,22.08
2022-08-05T04:33:54.290Z,22.24
2022-08-05T04:34:32.098Z,22.4
2022-08-05T04:36:10.738Z,22.64
2022-08-05T04:38:00.802Z,22.72
2022-08-05T04:38:39.334Z,22.8
2022-08-05T04:39:30.452Z,22.8
2022-08-05T04:40:30.504Z,23.04
2022-08-05T04:41:34.247Z,23.12
2022-08-05T04:42:30.805Z,23.2
2022-08-05T04:43:30.955Z,23.28
2022-08-05T04:44:31.068Z,22.88
2022-08-05T04:45:48.661Z,22.72
2022-08-05T04:46:31.316Z,22.64
2022-08-05T04:47:31.455Z,22.8
2022-08-05T04:48:31.602Z,23.12
2022-08-05T04:49:39.367Z,23.04
2022-08-05T04:50:34.542Z,23.04
2022-08-05T04:51:32.021Z,23.2
2022-08-05T04:52:32.647Z,23.12
2022-08-05T04:53:33.279Z,23.2
2022-08-05T04:54:32.423Z,23.44
2022-08-05T04:56:15.713Z,23.2
2022-08-05T04:57:37.093Z,23.28
2022-08-05T04:58:33.039Z,23.44
2022-08-05T04:59:33.567Z,23.52
2022-08-05T05:00:33.283Z,23.6
2022-08-05T05:02:08.483Z,23.68
2022-08-05T05:03:42.045Z,23.92
2022-08-05T05:04:33.827Z,23.68
2022-08-05T05:05:33.890Z,23.6
2022-08-05T05:07:35.281Z,23.6
2022-08-05T05:08:34.306Z,23.44
2022-08-05T05:09:34.428Z,23.28
2022-08-05T05:10:34.562Z,23.44
2022-08-05T05:11:42.098Z,23.52
2022-08-05T05:12:36.763Z,23.68
2022-08-05T05:13:40.975Z,23.92
2022-08-05T05:14:36.190Z,24.08
2022-08-05T05:15:54.542Z,24.24
2022-08-05T05:16:35.459Z,24.4
2022-08-05T05:17:55.381Z,24.4
2022-08-05T05:18:35.709Z,24.4
2022-08-05T05:19:36.649Z,24.64
2022-08-05T05:20:36.032Z,24.4
2022-08-05T05:21:36.179Z,24.48
2022-08-05T05:22:36.272Z,25.04
2022-08-05T05:23:39.654Z,25.2
2022-08-05T05:24:56.600Z,25.52
2022-08-05T05:25:40.691Z,25.68
2022-08-05T05:26:36.791Z,25.92
2022-08-05T05:27:41.912Z,26.32
2022-08-05T05:28:38.933Z,26.72
2022-08-05T05:29:41.007Z,27.04
2022-08-05T05:30:37.394Z,26.88
2022-08-05T05:32:38.401Z,26.08
2022-08-05T05:33:43.399Z,25.84
2022-08-05T05:34:37.967Z,26
2022-08-05T05:35:39.654Z,25.68
2022-08-05T05:36:38.267Z,26.32
2022-08-05T05:37:38.412Z,26.32
2022-08-05T05:38:38.563Z,26
2022-08-05T05:39:38.814Z,25.6
2022-08-05T05:40:39.313Z,25.12
2022-08-05T05:41:40.297Z,24.72
2022-08-05T05:42:39.189Z,24
2022-08-05T05:43:56.579Z,24.08
2022-08-05T05:44:43.070Z,24.48
2022-08-05T05:45:39.585Z,25.04
2022-08-05T05:46:39.674Z,25.44
2022-08-05T05:48:05.262Z,25.04
2022-08-05T05:48:39.943Z,25.44
2022-08-05T05:49:40.087Z,25.6
2022-08-05T05:50:41.394Z,25.92
2022-08-05T05:51:49.851Z,26.24
2022-08-05T05:52:40.630Z,25.68
2022-08-05T05:53:46.204Z,24.88
2022-08-05T05:54:49.998Z,25.04
2022-08-05T05:55:51.183Z,25.28
2022-08-05T05:56:41.094Z,25.68
2022-08-05T05:57:42.669Z,25.84
2022-08-05T05:58:41.398Z,25.84
2022-08-05T05:59:41.567Z,25.6
2022-08-05T06:00:41.704Z,25.28
2022-08-05T06:01:57.429Z,25.28
2022-08-05T06:02:41.966Z,25.68
2022-08-05T06:03:54.361Z,25.28
2022-08-05T06:04:42.325Z,25.44
2022-08-05T06:05:42.421Z,25.52
2022-08-05T06:06:42.873Z,25.28
2022-08-05T06:07:42.668Z,25.6
2022-08-05T06:08:42.825Z,25.6
2022-08-05T06:09:51.321Z,25.44
2022-08-05T06:10:49.295Z,25.28
2022-08-05T06:11:43.234Z,25.2
2022-08-05T06:12:43.376Z,25.28
2022-08-05T06:13:50.316Z,25.6
2022-08-05T06:14:43.671Z,25.84
2022-08-05T06:16:27.664Z,25.2
2022-08-05T06:16:44.170Z,24.48
2022-08-05T06:17:52.558Z,24.4
2022-08-05T06:18:44.240Z,24.32
2022-08-05T06:19:44.334Z,23.92
2022-08-05T06:20:47.694Z,23.84
2022-08-05T06:21:49.196Z,23.52
2022-08-05T06:22:44.751Z,23.12
2022-08-05T06:23:44.891Z,23.12
2022-08-05T06:24:46.729Z,23.28
2022-08-05T06:25:59.883Z,23.6
2022-08-05T06:26:51.907Z,23.28
2022-08-05T06:28:08.873Z,23.2
2022-08-05T06:28:45.566Z,22.88
2022-08-05T06:29:52.179Z,23.04
2022-08-05T06:30:45.854Z,22.8
2022-08-05T06:31:45.975Z,22.8
2022-08-05T06:32:46.805Z,23.2
2022-08-05T06:34:06.651Z,23.2
2022-08-05T06:34:46.372Z,23.28
2022-08-05T06:36:04.405Z,24
2022-08-05T06:36:53.654Z,24.8
2022-08-05T06:37:57.106Z,24.8
2022-08-05T06:38:47.262Z,25.68
2022-08-05T06:39:47.196Z,25.84
2022-08-05T06:40:47.295Z,25.6
2022-08-05T06:41:47.432Z,25.6
2022-08-05T06:42:47.547Z,26
2022-08-05T06:43:51.969Z,26.4
2022-08-05T06:44:49.229Z,26.08
2022-08-05T06:46:03.451Z,26.48
2022-08-05T06:46:48.152Z,27.44
2022-08-05T06:48:12.365Z,27.04
2022-08-05T06:50:00.904Z,26.24
2022-08-05T06:50:49.950Z,26.88
2022-08-05T06:51:48.763Z,28.08
2022-08-05T06:52:58.899Z,28.4
2022-08-05T06:53:53.426Z,28.48
2022-08-05T06:54:52.084Z,27.28
2022-08-05T06:55:49.422Z,27.68
2022-08-05T06:56:54.616Z,28.4
2022-08-05T06:57:58.391Z,28.8
2022-08-05T06:58:49.817Z,28.48
2022-08-05T06:59:56.424Z,28.4
2022-08-05T07:00:50.138Z,27.68
2022-08-05T07:01:52.750Z,27.68
2022-08-05T07:02:53.858Z,27.68
2022-08-05T07:03:50.494Z,27.92
2022-08-05T07:04:50.639Z,27.6
2022-08-05T07:05:50.785Z,28.48
2022-08-05T07:06:50.947Z,28.4
2022-08-05T07:07:51.098Z,28.4
2022-08-05T07:08:51.739Z,28
2022-08-05T07:09:55.617Z,27.2
2022-08-05T07:10:52.636Z,28.48
2022-08-05T07:11:51.870Z,29.28
2022-08-05T07:12:51.845Z,29.84
2022-08-05T07:13:58.619Z,29.92
2022-08-05T07:14:53.923Z,29.12
2022-08-05T07:16:00.733Z,29.2
2022-08-05T07:17:57.545Z,29.84
2022-08-05T07:18:52.707Z,29.52
2022-08-05T07:20:32.704Z,29.2
2022-08-05T07:20:52.954Z,29.12
2022-08-05T07:21:59.707Z,29.44
2022-08-05T07:22:53.271Z,29.12
2022-08-05T07:23:53.437Z,28.64
2022-08-05T07:24:53.787Z,28.4
2022-08-05T07:25:55.874Z,28.72
2022-08-05T07:26:53.845Z,29.44
2022-08-05T07:27:56.952Z,29.44
2022-08-05T07:28:54.136Z,29.6
2022-08-05T07:30:22.428Z,28.4
2022-08-05T07:30:55.012Z,28.72
2022-08-05T07:31:55.316Z,28.8
2022-08-05T07:32:54.761Z,28.72
2022-08-05T07:33:54.903Z,28.08
2022-08-05T07:34:57.839Z,28
2022-08-05T07:35:56.954Z,27.68
2022-08-05T07:36:55.354Z,28.64
2022-08-05T07:37:55.490Z,28.4
2022-08-05T07:38:55.593Z,28.48
2022-08-05T07:40:03.855Z,29.28
2022-08-05T07:41:00.261Z,29.12
2022-08-05T07:42:09.984Z,28.88
2022-08-05T07:42:56.119Z,27.28
2022-08-05T07:43:56.855Z,27.92
2022-08-05T07:44:56.409Z,28.48
2022-08-05T07:45:58.328Z,28.48
2022-08-05T07:46:56.678Z,28.72
2022-08-05T07:47:56.813Z,28.32
2022-08-05T07:49:01.256Z,28.48
2022-08-05T07:49:57.113Z,29.52
2022-08-05T07:50:57.219Z,29.84
2022-08-05T07:51:57.319Z,29.92
2022-08-05T07:52:57.422Z,29.12
2022-08-05T07:53:57.529Z,29.84
2022-08-05T07:54:57.630Z,29.2
2022-08-05T07:56:05.031Z,29.52
2022-08-05T07:57:02.990Z,30.24
2022-08-05T07:58:02.900Z,30.72
2022-08-05T07:58:59.070Z,29.68
2022-08-05T07:59:58.388Z,29.2
2022-08-05T08:00:58.622Z,28.32
2022-08-05T08:01:58.740Z,27.84
2022-08-05T08:03:14.474Z,27.6
2022-08-05T08:03:58.951Z,27.52
2022-08-05T08:04:59.106Z,26.4
2022-08-05T08:05:59.282Z,26.88
2022-08-05T08:06:59.408Z,27.6
2022-08-05T08:08:00.648Z,27.44
2022-08-05T08:08:59.707Z,27.6
2022-08-05T08:09:59.907Z,26.88
2022-08-05T08:11:00.025Z,26.24
2022-08-05T08:12:03.944Z,26.72
2022-08-05T08:13:00.748Z,27.44
2022-08-05T08:14:01.227Z,27.6
2022-08-05T08:15:02.373Z,27.44
2022-08-05T08:16:36.060Z,27.6
2022-08-05T08:17:00.823Z,27.84
2022-08-05T08:18:01.939Z,27.44
2022-08-05T08:19:01.123Z,28.08
2022-08-05T08:20:23.077Z,28.08
2022-08-05T08:21:03.291Z,28.48
2022-08-05T08:22:01.585Z,28
2022-08-05T08:23:03.215Z,28.4
2022-08-05T08:24:04.866Z,27.68
2022-08-05T08:25:02.995Z,28.32
2022-08-05T08:26:02.593Z,29.44
2022-08-05T08:27:02.244Z,30.32
2022-08-05T08:28:02.389Z,29.28
2022-08-05T08:29:22.067Z,29.68
2022-08-05T08:31:02.755Z,32
2022-08-05T08:32:02.859Z,31.28
2022-08-05T08:33:04.334Z,32.24
2022-08-05T08:34:03.058Z,31.28
2022-08-05T08:35:03.230Z,31.6
2022-08-05T08:36:18.680Z,31.6
2022-08-05T08:37:04.948Z,32.24
2022-08-05T08:38:03.663Z,31.52
2022-08-05T08:39:03.833Z,31.84
2022-08-05T08:40:04.345Z,31.12
2022-08-05T08:41:04.141Z,30.32
2022-08-05T08:42:06.513Z,31.52
2022-08-05T08:43:21.130Z,29.92
2022-08-05T08:46:04.977Z,31.68
2022-08-05T08:47:22.084Z,31.52
2022-08-05T08:49:17.507Z,31.2
2022-08-05T08:51:21.976Z,31.6
2022-08-05T08:52:13.518Z,31.12
2022-08-05T08:53:07.796Z,31.92
2022-08-05T08:54:05.962Z,31.52
2022-08-05T08:55:13.111Z,32.32
2022-08-05T08:56:06.574Z,32.24
2022-08-05T08:57:06.415Z,32.32
2022-08-05T08:58:06.569Z,32.24
2022-08-05T08:59:10.066Z,32.4
2022-08-05T09:00:06.811Z,32.08
2022-08-05T09:01:07.335Z,32.08
2022-08-05T09:02:08.511Z,32.88
2022-08-05T09:03:07.212Z,31.92
2022-08-05T09:04:07.317Z,31.52
2022-08-05T09:05:17.108Z,32.08
2022-08-05T09:06:11.484Z,32.8
2022-08-05T09:07:10.627Z,32.56
2022-08-05T09:08:07.837Z,32.48
2022-08-05T09:09:07.992Z,32.56
2022-08-05T09:10:08.125Z,32.8
2022-08-05T09:11:08.282Z,32.88
2022-08-05T09:12:20.318Z,32.72
2022-08-05T09:13:08.592Z,33.92
2022-08-05T09:14:10.401Z,33.84
2022-08-05T09:15:08.893Z,33.6
2022-08-05T09:16:09.176Z,33.92
2022-08-05T09:17:09.639Z,34.4
2022-08-05T09:18:09.374Z,34.32
2022-08-05T09:19:09.542Z,34.56
2022-08-05T09:20:09.646Z,31.92
2022-08-05T09:21:11.592Z,33.28
2022-08-05T09:22:18.564Z,33.68
2022-08-05T09:23:10.067Z,34.56
2022-08-05T09:24:10.414Z,34.48
2022-08-05T09:25:14.130Z,34.32
2022-08-05T09:26:10.481Z,33.92
2022-08-05T09:27:10.573Z,34.32
2022-08-05T09:28:10.727Z,32.88
2022-08-05T09:29:10.880Z,33.6
2022-08-05T09:30:16.382Z,33.2
2022-08-05T09:31:23.033Z,33.68
2022-08-05T09:33:11.396Z,34.8
2022-08-05T09:34:11.537Z,34.88
2022-08-05T09:35:11.682Z,34.24
2022-08-05T09:36:16.548Z,34.56
2022-08-05T09:37:15.051Z,35.2
2022-08-05T09:38:17.879Z,34.8
2022-08-05T09:39:16.362Z,34.8
2022-08-05T09:40:12.450Z,35.52
2022-08-05T09:41:12.560Z,36.32
2022-08-05T09:42:13.508Z,35.6
2022-08-05T09:43:12.857Z,35.84
2022-08-05T09:44:12.998Z,34.8
2022-08-05T09:45:18.076Z,36.4
2022-08-05T09:46:13.249Z,35.68
2022-08-05T09:47:13.977Z,35.92
2022-08-05T09:48:13.521Z,36.08
2022-08-05T09:49:18.826Z,34.48
2022-08-05T09:50:13.806Z,36
2022-08-05T09:51:15.077Z,34.8
2022-08-05T09:52:14.075Z,35.92
2022-08-05T09:53:23.216Z,35.6
2022-08-05T09:54:14.375Z,34.72
2022-08-05T09:55:56.031Z,33.84
2022-08-05T09:56:14.678Z,35.2
2022-08-05T09:57:20.739Z,34.8
2022-08-05T09:58:14.925Z,32.4
2022-08-05T09:59:17.003Z,31.68
2022-08-05T10:00:15.225Z,33.84
2022-08-05T10:01:22.708Z,34.72
2022-08-05T10:02:15.884Z,34.08
2022-08-05T10:03:15.641Z,34.56
2022-08-05T10:04:17.295Z,33.92
2022-08-05T10:05:16.250Z,33.04
2022-08-05T10:06:16.396Z,34.4
2022-08-05T10:07:20.668Z,35.12
2022-08-05T10:08:35.637Z,34.72
2022-08-05T10:09:25.247Z,35.84
2022-08-05T10:10:17.888Z,35.6
2022-08-05T10:11:16.780Z,36.48
2022-08-05T10:12:19.027Z,36.88
2022-08-05T10:13:17.018Z,37.44
2022-08-05T10:14:17.171Z,35.52
2022-08-05T10:15:20.099Z,35.52
2022-08-05T10:16:17.489Z,34.08
2022-08-05T10:17:37.033Z,35.04
2022-08-05T10:18:17.725Z,36.8
2022-08-05T10:19:17.834Z,36.24
2022-08-05T10:20:18.211Z,34.88
2022-08-05T10:21:18.138Z,35.52
2022-08-05T10:22:29.587Z,36.4
2022-08-05T10:23:22.087Z,35.68
2022-08-05T10:24:18.613Z,35.04
2022-08-05T10:25:18.688Z,37.52
2022-08-05T10:26:18.849Z,37.04
2022-08-05T10:27:19.015Z,38.08
2022-08-05T10:28:19.699Z,35.68
2022-08-05T10:29:22.056Z,35.6
2022-08-05T10:30:41.699Z,36.56
2022-08-05T10:33:19.904Z,39.44
2022-08-05T10:34:20.048Z,38.72
2022-08-05T10:35:20.179Z,37.44
2022-08-05T10:36:23.380Z,37.68
2022-08-05T10:37:20.454Z,36.88
2022-08-05T10:38:20.647Z,37.44
2022-08-05T10:39:24.746Z,37.92
2022-08-05T10:40:22.323Z,38
2022-08-05T10:41:23.372Z,38.24
2022-08-05T10:42:22.881Z,39.28
2022-08-05T10:43:23.160Z,37.68
2022-08-05T10:44:21.432Z,38.32
2022-08-05T10:45:24.125Z,39.28
2022-08-05T10:46:24.027Z,37.28
2022-08-05T10:47:25.841Z,37.52
2022-08-05T10:48:30.406Z,37.12
2022-08-05T10:49:27.345Z,36.88
2022-08-05T10:50:33.326Z,36.88
2022-08-05T10:51:23.006Z,36.08
2022-08-05T10:52:22.612Z,36.88
2022-08-05T10:53:22.653Z,38.48
2022-08-05T10:54:23.268Z,39.2
2022-08-05T10:55:22.953Z,38.48
2022-08-05T10:56:25.605Z,38.48
2022-08-05T10:57:23.249Z,35.6
2022-08-05T10:58:23.395Z,34.72
2022-08-05T11:00:01.427Z,34.24
2022-08-05T11:00:23.722Z,34.4
2022-08-05T11:01:28.200Z,34.08
2022-08-05T11:02:35.135Z,35.2
2022-08-05T11:03:26.832Z,35.28
2022-08-05T11:04:26.223Z,35.28
2022-08-05T11:05:28.815Z,36.48
2022-08-05T11:06:30.687Z,37.84
2022-08-05T11:07:32.716Z,38.32
2022-08-05T11:08:36.923Z,37.92
2022-08-05T11:09:31.972Z,37.12
2022-08-05T11:10:27.333Z,35.52
2022-08-05T11:11:25.323Z,36.48
2022-08-05T11:12:26.022Z,36
2022-08-05T11:13:25.596Z,35.2
2022-08-05T11:14:43.093Z,37.6
2022-08-05T11:15:43.982Z,38
2022-08-05T11:16:33.671Z,38.32
2022-08-05T11:17:58.552Z,39.28
2022-08-05T11:18:26.340Z,40.32
2022-08-05T11:20:09.711Z,39.92
2022-08-05T11:20:26.600Z,40.4
2022-08-05T11:21:26.750Z,39.12
2022-08-05T11:22:26.862Z,38.88
2022-08-05T11:23:33.803Z,39.44
2022-08-05T11:24:30.496Z,39.92
2022-08-05T11:26:03.826Z,38.48
2022-08-05T11:26:27.844Z,37.44
2022-08-05T11:27:27.562Z,37.44
2022-08-05T11:28:27.656Z,37.2
2022-08-05T11:29:27.823Z,35.68
2022-08-05T11:30:28.008Z,34.24
2022-08-05T11:31:53.854Z,33.52
2022-08-05T11:32:28.210Z,33.84
2022-08-05T11:33:34.670Z,33.68
2022-08-05T11:34:28.514Z,33.44
2022-08-05T11:35:28.675Z,33.44
2022-08-05T11:36:34.111Z,32.32
2022-08-05T11:38:27.576Z,31.52
2022-08-05T11:39:29.336Z,32.08
2022-08-05T11:40:29.447Z,32.08
2022-08-05T11:41:36.930Z,32.24
2022-08-05T11:42:29.754Z,33.12
2022-08-05T11:43:35.465Z,33.92
2022-08-05T11:44:40.972Z,35.04
2022-08-05T11:46:15.761Z,35.44
2022-08-05T11:47:48.356Z,36.56
2022-08-05T11:48:30.500Z,36.8
2022-08-05T11:49:33.926Z,37.12
2022-08-05T11:50:30.807Z,37.68
2022-08-05T11:51:43.480Z,37.52
2022-08-05T11:52:31.293Z,35.6
2022-08-05T11:53:33.731Z,34.48
2022-08-05T11:54:33.043Z,35.92
2022-08-05T11:55:36.193Z,36.24
2022-08-05T11:56:40.841Z,34.24
2022-08-05T11:57:39.608Z,35.84
2022-08-05T11:58:31.993Z,37.28
2022-08-05T11:59:32.134Z,36.32
2022-08-05T12:00:32.266Z,35.28
2022-08-05T12:01:32.370Z,34.56
2022-08-05T12:02:32.920Z,34.24
2022-08-05T12:03:32.730Z,36
2022-08-05T12:04:32.771Z,36.4
2022-08-05T12:05:36.201Z,36.24
2022-08-05T12:06:32.992Z,35.2
2022-08-05T12:08:03.074Z,34.4
2022-08-05T12:08:33.294Z,35.12
2022-08-05T12:09:38.743Z,35.28
2022-08-05T12:10:38.366Z,35.04
2022-08-05T12:11:39.982Z,35.44
2022-08-05T12:12:33.851Z,35.52
2022-08-05T12:13:48.322Z,36.48
2022-08-05T12:14:34.098Z,36.8
2022-08-05T12:15:38.153Z,36.88
2022-08-05T12:16:34.354Z,36
2022-08-05T12:17:57.916Z,35.52
2022-08-05T12:18:34.653Z,34.8
2022-08-05T12:20:17.496Z,33.84
2022-08-05T12:20:34.975Z,34.08
2022-08-05T12:21:39.107Z,34.56
2022-08-05T12:22:35.212Z,34
2022-08-05T12:23:35.312Z,34
2022-08-05T12:24:35.417Z,33.2
2022-08-05T12:25:35.533Z,33.2
2022-08-05T12:26:36.227Z,33.2
2022-08-05T12:27:35.841Z,33.2
2022-08-05T12:28:36.662Z,33.44
2022-08-05T12:29:38.076Z,33.92
2022-08-05T12:30:36.223Z,33.12
2022-08-05T12:31:43.580Z,32.4
2022-08-05T12:32:36.484Z,33.28
2022-08-05T12:33:37.284Z,33.6
2022-08-05T12:34:36.752Z,33.6
2022-08-05T12:35:39.787Z,33.44
2022-08-05T12:36:37.034Z,33.28
2022-08-05T12:37:37.147Z,33.52
2022-08-05T12:38:37.331Z,35.68
2022-08-05T12:39:38.657Z,36.24
2022-08-05T12:40:37.599Z,36.32
2022-08-05T12:41:43.508Z,36.88
2022-08-05T12:42:37.869Z,37.6
2022-08-05T12:43:38.901Z,37.92
2022-08-05T12:44:38.159Z,36.56
2022-08-05T12:45:42.834Z,34.8
2022-08-05T12:46:38.377Z,35.2
2022-08-05T12:47:38.518Z,34.08
2022-08-05T12:48:38.673Z,33.84
2022-08-05T12:50:02.693Z,34.88
2022-08-05T12:50:38.918Z,35.2
2022-08-05T12:52:11.401Z,35.92
2022-08-05T12:52:42.153Z,37.04
2022-08-05T12:53:39.387Z,37.6
2022-08-05T12:54:39.546Z,35.44
2022-08-05T12:55:39.679Z,35.04
2022-08-05T12:56:39.827Z,35.44
2022-08-05T12:58:39.428Z,33.12
2022-08-05T12:59:46.564Z,32.88
2022-08-05T13:01:59.226Z,32
2022-08-05T13:02:40.911Z,32.8
2022-08-05T13:03:41.862Z,34.72
2022-08-05T13:04:41.712Z,34.08
2022-08-05T13:05:41.121Z,34.32
2022-08-05T13:06:41.258Z,35.6
2022-08-05T13:07:57.892Z,36
2022-08-05T13:08:41.511Z,34.8
2022-08-05T13:09:41.656Z,34.32
2022-08-05T13:10:50.431Z,34.8
2022-08-05T13:11:57.971Z,35.28
2022-08-05T13:12:42.614Z,33.6
2022-08-05T13:14:04.443Z,33.68
2022-08-05T13:14:42.416Z,33.68
2022-08-05T13:15:50.711Z,33.6
2022-08-05T13:16:42.723Z,33.28
2022-08-05T13:17:42.898Z,33.44
2022-08-05T13:18:42.970Z,33.04
2022-08-05T13:19:52.602Z,33.52
2022-08-05T13:20:43.190Z,33.28
2022-08-05T13:21:48.111Z,33.68
2022-08-05T13:22:43.493Z,33.68
2022-08-05T13:23:50.486Z,34
2022-08-05T13:24:51.308Z,33.68
2022-08-05T13:25:51.532Z,33.84
2022-08-05T13:26:44.008Z,33.44
2022-08-05T13:27:44.297Z,33.04
2022-08-05T13:28:44.357Z,32.88
2022-08-05T13:29:59.337Z,32.8
2022-08-05T13:30:44.543Z,32.72
2022-08-05T13:32:04.736Z,32.48